sensor_id;sensor_type;location;lat;lon;timestamp;temperature;humidity
39099;DHT22;24844;52.380;7.018;2024-01-15T00:01:29;2.40;99.90
39099;DHT22;24844;52.380;7.018;2024-01-15T00:03:55;2.40;99.90
39099;DHT22;24844;52.380;7.018;2024-01-15T00:06:20;2.50;99.90
39099;DHT22;24844;52.380;7.018;2024-01-15T00:08:46;2.20;99.90
39099;DHT22;24844;52.380;7.018;2024-01-15T00:11:12;2.30;99.90
39099;DHT22;24844;52.380;7.018;2024-01-15T00:13:37;2.30;99.90
39099;DHT22;24844;52.380;7.018;2024-01-15T00:16:04;2.40;99.90
39099;DHT22;24844;52.380;7.018;2024-01-15T00:18:29;2.20;99.90
39099;DHT22;24844;52.380;7.018;2024-01-15T00:20:55;2.00;99.90
39099;DHT22;24844;52.380;7.018;2024-01-15T00:23:20;2.10;99.90
39099;DHT22;24844;52.380;7.018;2024-01-15T00:25:46;2.20;99.90
39099;DHT22;24844;52.380;7.018;2024-01-15T00:28:12;2.30;99.90
39099;DHT22;24844;52.380;7.018;2024-01-15T00:30:37;2.10;99.90
39099;DHT22;24844;52.380;7.018;2024-01-15T00:33:03;2.10;99.90
39099;DHT22;24844;52.380;7.018;2024-01-15T00:35:28;2.10;99.90
39099;DHT22;24844;52.380;7.018;2024-01-15T00:37:54;2.30;99.90
39099;DHT22;24844;52.380;7.018;2024-01-15T00:40:19;2.20;99.90
39099;DHT22;24844;52.380;7.018;2024-01-15T00:42:45;2.00;99.90
39099;DHT22;24844;52.380;7.018;2024-01-15T00:45:11;1.90;99.90
39099;DHT22;24844;52.380;7.018;2024-01-15T00:47:36;2.00;99.90
39099;DHT22;24844;52.380;7.018;2024-01-15T00:50:02;2.10;99.90
39099;DHT22;24844;52.380;7.018;2024-01-15T00:52:28;2.20;99.90
39099;DHT22;24844;52.380;7.018;2024-01-15T00:54:53;1.90;99.90
39099;DHT22;24844;52.380;7.018;2024-01-15T00:57:19;1.90;99.90
39099;DHT22;24844;52.380;7.018;2024-01-15T00:59:45;2.00;99.90
39099;DHT22;24844;52.380;7.018;2024-01-15T01:02:11;2.00;99.90
39099;DHT22;24844;52.380;7.018;2024-01-15T01:04:36;2.10;99.90
39099;DHT22;24844;52.380;7.018;2024-01-15T01:07:02;1.90;99.90
39099;DHT22;24844;52.380;7.018;2024-01-15T01:09:27;1.90;99.90
39099;DHT22;24844;52.380;7.018;2024-01-15T01:11:56;2.10;99.90
39099;DHT22;24844;52.380;7.018;2024-01-15T01:14:22;2.30;99.90
39099;DHT22;24844;52.380;7.018;2024-01-15T01:16:47;2.20;99.90
39099;DHT22;24844;52.380;7.018;2024-01-15T01:19:13;2.30;99.90
39099;DHT22;24844;52.380;7.018;2024-01-15T01:21:39;2.40;99.90
39099;DHT22;24844;52.380;7.018;2024-01-15T01:24:04;2.50;99.90
39099;DHT22;24844;52.380;7.018;2024-01-15T01:26:30;2.20;99.90
39099;DHT22;24844;52.380;7.018;2024-01-15T01:28:56;2.20;99.90
39099;DHT22;24844;52.380;7.018;2024-01-15T01:31:23;2.20;99.90
39099;DHT22;24844;52.380;7.018;2024-01-15T01:33:48;2.30;99.90
39099;DHT22;24844;52.380;7.018;2024-01-15T01:36:14;2.20;99.90
39099;DHT22;24844;52.380;7.018;2024-01-15T01:38:40;2.00;99.90
39099;DHT22;24844;52.380;7.018;2024-01-15T01:41:06;2.20;99.90
39099;DHT22;24844;52.380;7.018;2024-01-15T01:43:31;2.10;99.90
39099;DHT22;24844;52.380;7.018;2024-01-15T01:45:57;1.90;99.90
39099;DHT22;24844;52.380;7.018;2024-01-15T01:48:24;1.70;99.90
39099;DHT22;24844;52.380;7.018;2024-01-15T01:50:54;2.20;99.90
39099;DHT22;24844;52.380;7.018;2024-01-15T01:53:21;2.10;99.90
39099;DHT22;24844;52.380;7.018;2024-01-15T01:55:48;2.00;99.90
39099;DHT22;24844;52.380;7.018;2024-01-15T01:58:15;1.90;99.90
39099;DHT22;24844;52.380;7.018;2024-01-15T02:00:41;2.10;99.90
39099;DHT22;24844;52.380;7.018;2024-01-15T02:03:06;2.00;99.90
39099;DHT22;24844;52.380;7.018;2024-01-15T02:05:33;2.00;99.90
39099;DHT22;24844;52.380;7.018;2024-01-15T02:07:59;1.90;99.90
39099;DHT22;24844;52.380;7.018;2024-01-15T02:10:24;2.00;99.90
39099;DHT22;24844;52.380;7.018;2024-01-15T02:12:50;2.20;99.90
39099;DHT22;24844;52.380;7.018;2024-01-15T02:15:15;2.20;99.90
39099;DHT22;24844;52.380;7.018;2024-01-15T02:18:16;2.20;99.90
39099;DHT22;24844;52.380;7.018;2024-01-15T02:20:42;2.30;99.90
39099;DHT22;24844;52.380;7.018;2024-01-15T02:23:15;2.10;99.90
39099;DHT22;24844;52.380;7.018;2024-01-15T02:25:43;2.00;99.90
39099;DHT22;24844;52.380;7.018;2024-01-15T02:28:15;2.20;99.90
39099;DHT22;24844;52.380;7.018;2024-01-15T02:30:41;2.40;99.90
39099;DHT22;24844;52.380;7.018;2024-01-15T02:33:08;2.10;99.90
39099;DHT22;24844;52.380;7.018;2024-01-15T02:35:35;2.00;99.90
39099;DHT22;24844;52.380;7.018;2024-01-15T02:38:04;2.20;99.90
39099;DHT22;24844;52.380;7.018;2024-01-15T02:40:30;2.30;99.90
39099;DHT22;24844;52.380;7.018;2024-01-15T02:42:55;2.30;99.90
39099;DHT22;24844;52.380;7.018;2024-01-15T02:45:21;2.30;99.90
39099;DHT22;24844;52.380;7.018;2024-01-15T02:47:47;2.40;99.90
39099;DHT22;24844;52.380;7.018;2024-01-15T02:50:13;2.40;99.90
39099;DHT22;24844;52.380;7.018;2024-01-15T02:52:39;1.90;99.90
39099;DHT22;24844;52.380;7.018;2024-01-15T02:55:05;2.20;99.90
39099;DHT22;24844;52.380;7.018;2024-01-15T02:57:30;2.10;99.90
39099;DHT22;24844;52.380;7.018;2024-01-15T02:59:56;2.00;99.90
39099;DHT22;24844;52.380;7.018;2024-01-15T03:02:22;2.30;99.90
39099;DHT22;24844;52.380;7.018;2024-01-15T03:04:47;2.20;99.90
39099;DHT22;24844;52.380;7.018;2024-01-15T03:07:13;2.40;99.90
39099;DHT22;24844;52.380;7.018;2024-01-15T03:09:38;2.40;99.90
39099;DHT22;24844;52.380;7.018;2024-01-15T03:12:04;2.50;99.90
39099;DHT22;24844;52.380;7.018;2024-01-15T03:14:30;2.40;99.90
39099;DHT22;24844;52.380;7.018;2024-01-15T03:16:56;2.30;99.90
39099;DHT22;24844;52.380;7.018;2024-01-15T03:19:21;2.30;99.90
39099;DHT22;24844;52.380;7.018;2024-01-15T03:21:47;2.20;99.90
39099;DHT22;24844;52.380;7.018;2024-01-15T03:24:12;2.40;99.90
39099;DHT22;24844;52.380;7.018;2024-01-15T03:26:38;2.40;99.90
39099;DHT22;24844;52.380;7.018;2024-01-15T03:29:04;2.10;99.90
39099;DHT22;24844;52.380;7.018;2024-01-15T03:31:29;2.50;99.90
39099;DHT22;24844;52.380;7.018;2024-01-15T03:33:55;2.50;99.90
39099;DHT22;24844;52.380;7.018;2024-01-15T03:36:21;2.40;99.90
39099;DHT22;24844;52.380;7.018;2024-01-15T03:38:46;2.60;99.90
39099;DHT22;24844;52.380;7.018;2024-01-15T03:41:12;2.50;99.90
39099;DHT22;24844;52.380;7.018;2024-01-15T03:43:38;2.60;99.90
39099;DHT22;24844;52.380;7.018;2024-01-15T03:46:03;2.30;99.90
39099;DHT22;24844;52.380;7.018;2024-01-15T03:48:30;2.50;99.90
39099;DHT22;24844;52.380;7.018;2024-01-15T03:50:55;2.30;99.90
39099;DHT22;24844;52.380;7.018;2024-01-15T03:53:21;2.60;99.90
39099;DHT22;24844;52.380;7.018;2024-01-15T03:55:47;2.40;99.90
39099;DHT22;24844;52.380;7.018;2024-01-15T03:58:12;2.50;99.90
39099;DHT22;24844;52.380;7.018;2024-01-15T04:00:40;2.10;99.90
39099;DHT22;24844;52.380;7.018;2024-01-15T04:03:05;2.20;99.90
39099;DHT22;24844;52.380;7.018;2024-01-15T04:05:31;2.00;99.90
39099;DHT22;24844;52.380;7.018;2024-01-15T04:07:57;2.00;99.90
39099;DHT22;24844;52.380;7.018;2024-01-15T04:10:22;2.20;99.90
39099;DHT22;24844;52.380;7.018;2024-01-15T04:12:48;2.20;99.90
39099;DHT22;24844;52.380;7.018;2024-01-15T04:15:13;2.30;99.90
39099;DHT22;24844;52.380;7.018;2024-01-15T04:17:39;2.40;99.90
39099;DHT22;24844;52.380;7.018;2024-01-15T04:20:05;2.40;99.90
39099;DHT22;24844;52.380;7.018;2024-01-15T04:22:32;2.50;99.90
39099;DHT22;24844;52.380;7.018;2024-01-15T04:24:57;2.40;99.90
39099;DHT22;24844;52.380;7.018;2024-01-15T04:27:23;2.30;99.90
39099;DHT22;24844;52.380;7.018;2024-01-15T04:29:48;2.30;99.90
39099;DHT22;24844;52.380;7.018;2024-01-15T04:32:14;2.50;99.90
39099;DHT22;24844;52.380;7.018;2024-01-15T04:34:39;2.60;99.90
39099;DHT22;24844;52.380;7.018;2024-01-15T04:37:05;2.40;99.90
39099;DHT22;24844;52.380;7.018;2024-01-15T04:39:30;2.40;99.90
39099;DHT22;24844;52.380;7.018;2024-01-15T04:41:56;2.40;99.90
39099;DHT22;24844;52.380;7.018;2024-01-15T04:44:22;2.70;99.90
39099;DHT22;24844;52.380;7.018;2024-01-15T04:46:47;2.70;99.90
39099;DHT22;24844;52.380;7.018;2024-01-15T04:49:13;2.80;99.90
39099;DHT22;24844;52.380;7.018;2024-01-15T04:51:38;2.60;99.90
39099;DHT22;24844;52.380;7.018;2024-01-15T04:54:04;2.50;99.90
39099;DHT22;24844;52.380;7.018;2024-01-15T04:56:30;2.70;99.90
39099;DHT22;24844;52.380;7.018;2024-01-15T04:58:55;2.30;99.90
39099;DHT22;24844;52.380;7.018;2024-01-15T05:01:21;2.30;99.90
39099;DHT22;24844;52.380;7.018;2024-01-15T05:03:46;2.50;99.90
39099;DHT22;24844;52.380;7.018;2024-01-15T05:06:12;2.60;99.90
39099;DHT22;24844;52.380;7.018;2024-01-15T05:08:37;2.40;99.90
39099;DHT22;24844;52.380;7.018;2024-01-15T05:11:03;2.50;99.90
39099;DHT22;24844;52.380;7.018;2024-01-15T05:13:29;2.40;99.90
39099;DHT22;24844;52.380;7.018;2024-01-15T05:15:54;2.50;99.90
39099;DHT22;24844;52.380;7.018;2024-01-15T05:18:20;2.60;99.90
39099;DHT22;24844;52.380;7.018;2024-01-15T05:20:45;2.50;99.90
39099;DHT22;24844;52.380;7.018;2024-01-15T05:23:11;2.20;99.90
39099;DHT22;24844;52.380;7.018;2024-01-15T05:25:37;2.40;99.90
39099;DHT22;24844;52.380;7.018;2024-01-15T05:28:02;2.60;99.90
39099;DHT22;24844;52.380;7.018;2024-01-15T05:30:28;2.70;99.90
39099;DHT22;24844;52.380;7.018;2024-01-15T05:32:54;2.50;99.90
39099;DHT22;24844;52.380;7.018;2024-01-15T05:35:19;2.20;99.90
39099;DHT22;24844;52.380;7.018;2024-01-15T05:37:45;2.60;99.90
39099;DHT22;24844;52.380;7.018;2024-01-15T05:40:12;2.20;99.90
39099;DHT22;24844;52.380;7.018;2024-01-15T05:42:39;2.40;99.90
39099;DHT22;24844;52.380;7.018;2024-01-15T05:45:05;2.30;99.90
39099;DHT22;24844;52.380;7.018;2024-01-15T05:47:31;2.40;99.90
39099;DHT22;24844;52.380;7.018;2024-01-15T05:49:57;2.40;99.90
39099;DHT22;24844;52.380;7.018;2024-01-15T05:52:23;2.30;99.90
39099;DHT22;24844;52.380;7.018;2024-01-15T05:54:49;2.00;99.90
39099;DHT22;24844;52.380;7.018;2024-01-15T05:57:15;2.20;99.90
39099;DHT22;24844;52.380;7.018;2024-01-15T05:59:42;2.30;99.90
39099;DHT22;24844;52.380;7.018;2024-01-15T06:02:08;2.20;99.90
39099;DHT22;24844;52.380;7.018;2024-01-15T06:04:33;2.60;99.90
39099;DHT22;24844;52.380;7.018;2024-01-15T06:06:59;2.50;99.90
39099;DHT22;24844;52.380;7.018;2024-01-15T06:09:24;2.40;99.90
39099;DHT22;24844;52.380;7.018;2024-01-15T06:11:50;2.60;99.90
39099;DHT22;24844;52.380;7.018;2024-01-15T06:14:16;2.60;99.90
39099;DHT22;24844;52.380;7.018;2024-01-15T06:16:41;2.40;99.90
39099;DHT22;24844;52.380;7.018;2024-01-15T06:19:07;2.20;99.90
39099;DHT22;24844;52.380;7.018;2024-01-15T06:21:32;2.10;99.90
39099;DHT22;24844;52.380;7.018;2024-01-15T06:23:58;2.20;99.90
39099;DHT22;24844;52.380;7.018;2024-01-15T06:26:23;2.40;99.90
39099;DHT22;24844;52.380;7.018;2024-01-15T06:28:49;2.30;99.90
39099;DHT22;24844;52.380;7.018;2024-01-15T06:31:14;2.40;99.90
39099;DHT22;24844;52.380;7.018;2024-01-15T06:33:40;2.40;99.90
39099;DHT22;24844;52.380;7.018;2024-01-15T06:36:06;2.20;99.90
39099;DHT22;24844;52.380;7.018;2024-01-15T06:38:32;2.10;99.90
39099;DHT22;24844;52.380;7.018;2024-01-15T06:40:58;2.40;99.90
39099;DHT22;24844;52.380;7.018;2024-01-15T06:43:23;2.40;99.90
39099;DHT22;24844;52.380;7.018;2024-01-15T06:45:49;2.40;99.90
39099;DHT22;24844;52.380;7.018;2024-01-15T06:48:15;2.20;99.90
39099;DHT22;24844;52.380;7.018;2024-01-15T06:50:42;2.20;99.90
39099;DHT22;24844;52.380;7.018;2024-01-15T06:53:08;2.00;99.90
39099;DHT22;24844;52.380;7.018;2024-01-15T06:55:34;2.40;99.90
39099;DHT22;24844;52.380;7.018;2024-01-15T06:57:59;2.20;99.90
39099;DHT22;24844;52.380;7.018;2024-01-15T07:00:25;2.10;99.90
39099;DHT22;24844;52.380;7.018;2024-01-15T07:02:51;2.40;99.90
39099;DHT22;24844;52.380;7.018;2024-01-15T07:05:17;2.10;99.90
39099;DHT22;24844;52.380;7.018;2024-01-15T07:07:42;2.10;99.90
39099;DHT22;24844;52.380;7.018;2024-01-15T07:10:08;2.40;99.90
39099;DHT22;24844;52.380;7.018;2024-01-15T07:12:34;2.30;99.90
39099;DHT22;24844;52.380;7.018;2024-01-15T07:15:00;2.20;99.90
39099;DHT22;24844;52.380;7.018;2024-01-15T07:17:25;2.30;99.90
39099;DHT22;24844;52.380;7.018;2024-01-15T07:19:51;2.30;99.90
39099;DHT22;24844;52.380;7.018;2024-01-15T07:22:16;2.20;99.90
39099;DHT22;24844;52.380;7.018;2024-01-15T07:24:43;2.10;99.90
39099;DHT22;24844;52.380;7.018;2024-01-15T07:27:08;2.20;99.90
39099;DHT22;24844;52.380;7.018;2024-01-15T07:29:34;1.90;99.90
39099;DHT22;24844;52.380;7.018;2024-01-15T07:32:03;1.80;99.90
39099;DHT22;24844;52.380;7.018;2024-01-15T07:34:29;2.20;99.90
39099;DHT22;24844;52.380;7.018;2024-01-15T07:36:54;2.20;99.90
39099;DHT22;24844;52.380;7.018;2024-01-15T07:39:20;2.50;99.90
39099;DHT22;24844;52.380;7.018;2024-01-15T07:41:48;2.40;99.90
39099;DHT22;24844;52.380;7.018;2024-01-15T07:44:13;2.30;99.90
39099;DHT22;24844;52.380;7.018;2024-01-15T07:46:39;2.40;99.90
39099;DHT22;24844;52.380;7.018;2024-01-15T07:49:05;2.40;99.90
39099;DHT22;24844;52.380;7.018;2024-01-15T07:51:30;2.20;99.90
39099;DHT22;24844;52.380;7.018;2024-01-15T07:53:56;2.40;99.90
39099;DHT22;24844;52.380;7.018;2024-01-15T07:56:22;2.30;99.90
39099;DHT22;24844;52.380;7.018;2024-01-15T07:58:47;2.30;99.90
39099;DHT22;24844;52.380;7.018;2024-01-15T08:01:13;2.30;99.90
39099;DHT22;24844;52.380;7.018;2024-01-15T08:03:38;2.50;99.90
39099;DHT22;24844;52.380;7.018;2024-01-15T08:06:05;2.60;99.90
39099;DHT22;24844;52.380;7.018;2024-01-15T08:08:31;2.40;99.90
39099;DHT22;24844;52.380;7.018;2024-01-15T08:10:56;2.00;99.90
39099;DHT22;24844;52.380;7.018;2024-01-15T08:13:22;2.30;99.90
39099;DHT22;24844;52.380;7.018;2024-01-15T08:15:48;2.00;99.90
39099;DHT22;24844;52.380;7.018;2024-01-15T08:18:13;2.00;99.90
39099;DHT22;24844;52.380;7.018;2024-01-15T08:20:40;2.00;99.90
39099;DHT22;24844;52.380;7.018;2024-01-15T08:23:06;1.90;99.90
39099;DHT22;24844;52.380;7.018;2024-01-15T08:25:31;2.00;99.90
39099;DHT22;24844;52.380;7.018;2024-01-15T08:27:57;2.20;99.90
39099;DHT22;24844;52.380;7.018;2024-01-15T08:30:23;2.30;99.90
39099;DHT22;24844;52.380;7.018;2024-01-15T08:32:53;2.10;99.90
39099;DHT22;24844;52.380;7.018;2024-01-15T08:35:19;2.20;99.90
39099;DHT22;24844;52.380;7.018;2024-01-15T08:37:51;2.10;99.90
39099;DHT22;24844;52.380;7.018;2024-01-15T08:40:16;2.20;99.90
39099;DHT22;24844;52.380;7.018;2024-01-15T08:42:42;2.00;99.90
39099;DHT22;24844;52.380;7.018;2024-01-15T08:45:09;2.30;99.90
39099;DHT22;24844;52.380;7.018;2024-01-15T08:47:34;2.20;99.90
39099;DHT22;24844;52.380;7.018;2024-01-15T08:50:01;2.30;99.90
39099;DHT22;24844;52.380;7.018;2024-01-15T08:52:27;2.40;99.90
39099;DHT22;24844;52.380;7.018;2024-01-15T08:54:52;2.80;99.90
39099;DHT22;24844;52.380;7.018;2024-01-15T08:57:18;2.80;99.90
39099;DHT22;24844;52.380;7.018;2024-01-15T08:59:43;3.20;99.90
39099;DHT22;24844;52.380;7.018;2024-01-15T09:02:10;3.80;99.90
39099;DHT22;24844;52.380;7.018;2024-01-15T09:04:36;3.90;99.90
39099;DHT22;24844;52.380;7.018;2024-01-15T09:07:01;4.40;99.90
39099;DHT22;24844;52.380;7.018;2024-01-15T09:09:27;4.50;99.90
39099;DHT22;24844;52.380;7.018;2024-01-15T09:11:53;4.80;99.90
39099;DHT22;24844;52.380;7.018;2024-01-15T09:14:18;4.40;99.90
39099;DHT22;24844;52.380;7.018;2024-01-15T09:16:45;4.10;99.90
39099;DHT22;24844;52.380;7.018;2024-01-15T09:19:10;4.30;99.90
39099;DHT22;24844;52.380;7.018;2024-01-15T09:21:38;4.00;99.90
39099;DHT22;24844;52.380;7.018;2024-01-15T09:24:04;3.60;99.90
39099;DHT22;24844;52.380;7.018;2024-01-15T09:26:29;3.70;99.90
39099;DHT22;24844;52.380;7.018;2024-01-15T09:28:55;3.50;99.90
39099;DHT22;24844;52.380;7.018;2024-01-15T09:31:20;3.90;99.90
39099;DHT22;24844;52.380;7.018;2024-01-15T09:33:47;3.50;99.90
39099;DHT22;24844;52.380;7.018;2024-01-15T09:36:12;3.40;99.90
39099;DHT22;24844;52.380;7.018;2024-01-15T09:38:40;3.70;99.90
39099;DHT22;24844;52.380;7.018;2024-01-15T09:41:05;3.60;99.90
39099;DHT22;24844;52.380;7.018;2024-01-15T09:43:31;3.60;99.90
39099;DHT22;24844;52.380;7.018;2024-01-15T09:45:57;3.70;99.90
39099;DHT22;24844;52.380;7.018;2024-01-15T09:48:23;4.00;99.90
39099;DHT22;24844;52.380;7.018;2024-01-15T09:50:49;3.50;99.90
39099;DHT22;24844;52.380;7.018;2024-01-15T09:53:15;3.30;99.90
39099;DHT22;24844;52.380;7.018;2024-01-15T09:55:41;3.40;99.90
39099;DHT22;24844;52.380;7.018;2024-01-15T09:58:07;3.30;99.90
39099;DHT22;24844;52.380;7.018;2024-01-15T10:00:33;3.40;99.90
39099;DHT22;24844;52.380;7.018;2024-01-15T10:03:03;3.30;99.90
39099;DHT22;24844;52.380;7.018;2024-01-15T10:05:29;3.30;99.90
39099;DHT22;24844;52.380;7.018;2024-01-15T10:07:55;3.30;99.90
39099;DHT22;24844;52.380;7.018;2024-01-15T10:10:21;3.00;99.90
39099;DHT22;24844;52.380;7.018;2024-01-15T10:12:48;3.10;99.90
39099;DHT22;24844;52.380;7.018;2024-01-15T10:15:13;3.40;99.90
39099;DHT22;24844;52.380;7.018;2024-01-15T10:17:39;3.60;99.90
39099;DHT22;24844;52.380;7.018;2024-01-15T10:20:12;3.50;99.90
39099;DHT22;24844;52.380;7.018;2024-01-15T10:22:45;3.30;99.90
39099;DHT22;24844;52.380;7.018;2024-01-15T10:25:13;2.90;99.90
39099;DHT22;24844;52.380;7.018;2024-01-15T10:27:40;3.40;99.90
39099;DHT22;24844;52.380;7.018;2024-01-15T10:30:08;3.60;99.90
39099;DHT22;24844;52.380;7.018;2024-01-15T10:32:33;3.60;99.90
39099;DHT22;24844;52.380;7.018;2024-01-15T10:34:59;3.80;99.90
39099;DHT22;24844;52.380;7.018;2024-01-15T10:37:25;3.50;99.90
39099;DHT22;24844;52.380;7.018;2024-01-15T10:39:51;3.60;99.90
39099;DHT22;24844;52.380;7.018;2024-01-15T10:42:16;3.70;99.90
39099;DHT22;24844;52.380;7.018;2024-01-15T10:44:44;3.70;99.90
39099;DHT22;24844;52.380;7.018;2024-01-15T10:47:09;3.90;99.90
39099;DHT22;24844;52.380;7.018;2024-01-15T10:49:36;3.90;99.90
39099;DHT22;24844;52.380;7.018;2024-01-15T10:52:02;4.60;99.90
39099;DHT22;24844;52.380;7.018;2024-01-15T10:54:28;4.60;99.90
39099;DHT22;24844;52.380;7.018;2024-01-15T10:56:56;4.50;99.90
39099;DHT22;24844;52.380;7.018;2024-01-15T10:59:21;4.30;99.90
39099;DHT22;24844;52.380;7.018;2024-01-15T11:01:49;4.00;99.90
39099;DHT22;24844;52.380;7.018;2024-01-15T11:04:15;4.10;99.90
39099;DHT22;24844;52.380;7.018;2024-01-15T11:06:46;4.20;99.90
39099;DHT22;24844;52.380;7.018;2024-01-15T11:09:13;4.00;99.90
39099;DHT22;24844;52.380;7.018;2024-01-15T11:11:43;4.00;99.90
39099;DHT22;24844;52.380;7.018;2024-01-15T11:14:09;3.90;99.90
39099;DHT22;24844;52.380;7.018;2024-01-15T11:16:54;3.90;99.90
39099;DHT22;24844;52.380;7.018;2024-01-15T11:19:22;3.80;99.90
39099;DHT22;24844;52.380;7.018;2024-01-15T11:21:47;4.10;99.90
39099;DHT22;24844;52.380;7.018;2024-01-15T11:24:33;4.00;99.90
39099;DHT22;24844;52.380;7.018;2024-01-15T11:27:00;4.50;99.90
39099;DHT22;24844;52.380;7.018;2024-01-15T11:29:34;4.60;99.90
39099;DHT22;24844;52.380;7.018;2024-01-15T11:32:07;5.20;99.90
39099;DHT22;24844;52.380;7.018;2024-01-15T11:37:24;4.60;99.90
39099;DHT22;24844;52.380;7.018;2024-01-15T11:39:54;4.20;99.90
39099;DHT22;24844;52.380;7.018;2024-01-15T11:42:21;3.70;99.90
39099;DHT22;24844;52.380;7.018;2024-01-15T11:44:47;3.60;99.90
39099;DHT22;24844;52.380;7.018;2024-01-15T11:47:14;3.80;99.90
39099;DHT22;24844;52.380;7.018;2024-01-15T11:52:18;3.30;99.90
39099;DHT22;24844;52.380;7.018;2024-01-15T11:55:26;3.20;99.90
39099;DHT22;24844;52.380;7.018;2024-01-15T11:57:54;3.60;99.90
39099;DHT22;24844;52.380;7.018;2024-01-15T12:00:21;3.30;99.90
39099;DHT22;24844;52.380;7.018;2024-01-15T12:02:48;3.70;99.90
39099;DHT22;24844;52.380;7.018;2024-01-15T12:05:15;3.30;99.90
39099;DHT22;24844;52.380;7.018;2024-01-15T12:07:42;3.50;99.90
39099;DHT22;24844;52.380;7.018;2024-01-15T12:10:12;3.10;99.90
39099;DHT22;24844;52.380;7.018;2024-01-15T12:15:13;3.20;99.90
39099;DHT22;24844;52.380;7.018;2024-01-15T12:17:39;3.00;99.90
39099;DHT22;24844;52.380;7.018;2024-01-15T12:20:05;3.40;99.90
39099;DHT22;24844;52.380;7.018;2024-01-15T12:22:31;2.80;99.90
39099;DHT22;24844;52.380;7.018;2024-01-15T12:24:57;2.70;99.90
39099;DHT22;24844;52.380;7.018;2024-01-15T12:27:23;3.10;99.90
39099;DHT22;24844;52.380;7.018;2024-01-15T12:29:49;3.30;99.90
39099;DHT22;24844;52.380;7.018;2024-01-15T12:32:15;2.90;99.90
39099;DHT22;24844;52.380;7.018;2024-01-15T12:34:40;3.10;99.90
39099;DHT22;24844;52.380;7.018;2024-01-15T12:37:07;3.20;99.90
39099;DHT22;24844;52.380;7.018;2024-01-15T12:39:34;3.20;99.90
39099;DHT22;24844;52.380;7.018;2024-01-15T12:42:01;3.00;99.90
39099;DHT22;24844;52.380;7.018;2024-01-15T12:44:27;3.10;99.90
39099;DHT22;24844;52.380;7.018;2024-01-15T12:46:53;3.40;99.90
39099;DHT22;24844;52.380;7.018;2024-01-15T12:49:18;3.30;99.90
39099;DHT22;24844;52.380;7.018;2024-01-15T12:51:56;3.00;99.90
39099;DHT22;24844;52.380;7.018;2024-01-15T12:54:22;2.90;99.90
39099;DHT22;24844;52.380;7.018;2024-01-15T12:56:49;3.20;99.90
39099;DHT22;24844;52.380;7.018;2024-01-15T12:59:15;3.20;99.90
39099;DHT22;24844;52.380;7.018;2024-01-15T13:01:41;3.10;99.90
39099;DHT22;24844;52.380;7.018;2024-01-15T13:04:07;3.10;99.90
39099;DHT22;24844;52.380;7.018;2024-01-15T13:06:34;3.40;99.90
39099;DHT22;24844;52.380;7.018;2024-01-15T13:09:00;2.90;99.90
39099;DHT22;24844;52.380;7.018;2024-01-15T13:11:26;3.20;99.90
39099;DHT22;24844;52.380;7.018;2024-01-15T13:13:52;3.10;99.90
39099;DHT22;24844;52.380;7.018;2024-01-15T13:16:18;3.30;99.90
39099;DHT22;24844;52.380;7.018;2024-01-15T13:18:46;2.80;99.90
39099;DHT22;24844;52.380;7.018;2024-01-15T13:21:11;2.80;99.90
39099;DHT22;24844;52.380;7.018;2024-01-15T13:23:38;2.80;99.90
39099;DHT22;24844;52.380;7.018;2024-01-15T13:26:04;3.10;99.90
39099;DHT22;24844;52.380;7.018;2024-01-15T13:28:30;3.00;99.90
39099;DHT22;24844;52.380;7.018;2024-01-15T13:30:56;2.90;99.90
39099;DHT22;24844;52.380;7.018;2024-01-15T13:33:21;2.80;99.90
39099;DHT22;24844;52.380;7.018;2024-01-15T13:35:47;2.80;99.90
39099;DHT22;24844;52.380;7.018;2024-01-15T13:38:15;2.60;99.90
39099;DHT22;24844;52.380;7.018;2024-01-15T13:40:41;2.70;99.90
39099;DHT22;24844;52.380;7.018;2024-01-15T13:43:06;3.00;99.90
39099;DHT22;24844;52.380;7.018;2024-01-15T13:45:34;3.00;99.90
39099;DHT22;24844;52.380;7.018;2024-01-15T13:47:59;2.50;99.90
39099;DHT22;24844;52.380;7.018;2024-01-15T13:50:25;2.70;99.90
39099;DHT22;24844;52.380;7.018;2024-01-15T13:52:51;2.80;99.90
39099;DHT22;24844;52.380;7.018;2024-01-15T13:55:16;2.80;99.90
39099;DHT22;24844;52.380;7.018;2024-01-15T13:57:42;3.00;99.90
39099;DHT22;24844;52.380;7.018;2024-01-15T14:00:08;3.10;99.90
39099;DHT22;24844;52.380;7.018;2024-01-15T14:02:37;3.00;99.90
39099;DHT22;24844;52.380;7.018;2024-01-15T14:05:02;2.80;99.90
39099;DHT22;24844;52.380;7.018;2024-01-15T14:07:28;2.90;99.90
39099;DHT22;24844;52.380;7.018;2024-01-15T14:09:54;2.90;99.90
39099;DHT22;24844;52.380;7.018;2024-01-15T14:12:19;2.70;99.90
39099;DHT22;24844;52.380;7.018;2024-01-15T14:14:45;3.10;99.90
39099;DHT22;24844;52.380;7.018;2024-01-15T14:17:10;2.70;99.90
39099;DHT22;24844;52.380;7.018;2024-01-15T14:19:36;2.70;99.90
39099;DHT22;24844;52.380;7.018;2024-01-15T14:22:01;2.60;99.90
39099;DHT22;24844;52.380;7.018;2024-01-15T14:24:29;2.70;99.90
39099;DHT22;24844;52.380;7.018;2024-01-15T14:26:55;2.90;99.90
39099;DHT22;24844;52.380;7.018;2024-01-15T14:29:20;2.90;99.90
39099;DHT22;24844;52.380;7.018;2024-01-15T14:31:47;3.10;99.90
39099;DHT22;24844;52.380;7.018;2024-01-15T14:34:13;2.90;99.90
39099;DHT22;24844;52.380;7.018;2024-01-15T14:36:38;2.90;99.90
39099;DHT22;24844;52.380;7.018;2024-01-15T14:39:04;2.70;99.90
39099;DHT22;24844;52.380;7.018;2024-01-15T14:41:30;2.90;99.90
39099;DHT22;24844;52.380;7.018;2024-01-15T14:43:56;2.80;99.90
39099;DHT22;24844;52.380;7.018;2024-01-15T14:46:22;3.00;99.90
39099;DHT22;24844;52.380;7.018;2024-01-15T14:48:48;2.70;99.90
39099;DHT22;24844;52.380;7.018;2024-01-15T14:51:14;3.00;99.90
39099;DHT22;24844;52.380;7.018;2024-01-15T14:53:39;2.90;99.90
39099;DHT22;24844;52.380;7.018;2024-01-15T14:56:05;2.70;99.90
39099;DHT22;24844;52.380;7.018;2024-01-15T14:58:31;3.00;99.90
39099;DHT22;24844;52.380;7.018;2024-01-15T15:00:58;3.00;99.90
39099;DHT22;24844;52.380;7.018;2024-01-15T15:03:23;2.50;99.90
39099;DHT22;24844;52.380;7.018;2024-01-15T15:05:49;2.60;99.90
39099;DHT22;24844;52.380;7.018;2024-01-15T15:08:15;2.60;99.90
39099;DHT22;24844;52.380;7.018;2024-01-15T15:10:40;2.50;99.90
39099;DHT22;24844;52.380;7.018;2024-01-15T15:13:06;2.30;99.90
39099;DHT22;24844;52.380;7.018;2024-01-15T15:15:32;2.60;99.90
39099;DHT22;24844;52.380;7.018;2024-01-15T15:17:58;2.40;99.90
39099;DHT22;24844;52.380;7.018;2024-01-15T15:20:23;2.40;99.90
39099;DHT22;24844;52.380;7.018;2024-01-15T15:22:49;2.60;99.90
39099;DHT22;24844;52.380;7.018;2024-01-15T15:25:14;2.60;99.90
39099;DHT22;24844;52.380;7.018;2024-01-15T15:27:40;2.50;99.90
39099;DHT22;24844;52.380;7.018;2024-01-15T15:30:07;2.70;99.90
39099;DHT22;24844;52.380;7.018;2024-01-15T15:32:33;2.60;99.90
39099;DHT22;24844;52.380;7.018;2024-01-15T15:34:58;2.40;99.90
39099;DHT22;24844;52.380;7.018;2024-01-15T15:37:24;2.50;99.90
39099;DHT22;24844;52.380;7.018;2024-01-15T15:39:49;2.60;99.90
39099;DHT22;24844;52.380;7.018;2024-01-15T15:42:15;2.40;99.90
39099;DHT22;24844;52.380;7.018;2024-01-15T15:44:41;2.50;99.90
39099;DHT22;24844;52.380;7.018;2024-01-15T15:47:12;2.50;99.90